Time;durP1;ratioP1;P1;durP2;ratioP2;P2;SDS_P1;SDS_P2;PMS_P1;PMS_P2;Temp;Humidity;BMP_temperature;BMP_pressure;BME280_temperature;BME280_humidity;BME280_pressure;Samples;Min_cycle;Max_cycle;Signal;HPM_P1;HPM_P2
2023/07/24 00:01:56;;;;;;;7.53;3.33;;;;;;;19.24;80.73;100411.25;7394423;19;20031;-58
2023/07/24 00:04:23;;;;;;;5.70;3.33;;;;;;;19.26;81.15;100416.44;7394427;19;20035;-59
2023/07/24 00:06:50;;;;;;;6.65;3.47;;;;;;;19.27;81.04;100421.66;7394438;19;20031;-58
2023/07/24 00:09:18;;;;;;;5.78;3.30;;;;;;;19.30;80.94;100420.44;7394897;19;20026;-59
2023/07/24 00:11:45;;;;;;;6.22;3.03;;;;;;;19.31;80.88;100411.34;7393355;19;20014;-59
2023/07/24 00:14:12;;;;;;;5.47;3.10;;;;;;;19.31;80.81;100414.03;7393515;19;20043;-59
2023/07/24 00:16:40;;;;;;;6.25;3.13;;;;;;;19.29;80.90;100414.22;7393718;19;20011;-58
2023/07/24 00:19:07;;;;;;;6.30;3.25;;;;;;;19.28;81.02;100419.78;7394582;19;20039;-59
2023/07/24 00:21:34;;;;;;;6.05;3.13;;;;;;;19.20;81.33;100407.25;7394202;19;20158;-59
2023/07/24 00:24:02;;;;;;;4.65;2.90;;;;;;;19.14;81.51;100400.72;7394669;19;20132;-60
2023/07/24 00:26:29;;;;;;;6.28;3.22;;;;;;;19.13;81.65;100400.91;7393135;19;20097;-60
2023/07/24 00:28:57;;;;;;;5.75;3.00;;;;;;;19.08;81.63;100397.91;7394581;19;20030;-59
2023/07/24 00:31:24;;;;;;;4.72;3.13;;;;;;;19.06;81.64;100394.59;7393098;19;20019;-61
2023/07/24 00:33:51;;;;;;;5.75;3.17;;;;;;;19.09;81.75;100391.56;7395865;19;20019;-60
2023/07/24 00:36:19;;;;;;;6.05;3.22;;;;;;;19.13;81.35;100401.75;7393014;19;20018;-60
2023/07/24 00:38:46;;;;;;;6.18;3.08;;;;;;;19.07;81.15;100394.41;7394356;19;20026;-59
2023/07/24 00:43:49;;;;;;;5.05;2.95;;;;;;;19.07;81.56;100402.44;7396309;19;20014;-59
2023/07/24 00:46:16;;;;;;;6.05;3.17;;;;;;;19.07;81.18;100398.94;7395836;19;20366;-59
2023/07/24 00:48:44;;;;;;;4.30;2.85;;;;;;;19.10;81.10;100396.72;7396223;19;20014;-58
2023/07/24 00:51:11;;;;;;;5.18;2.92;;;;;;;19.10;80.93;100401.25;7396635;19;20089;-59
2023/07/24 00:53:39;;;;;;;5.45;2.95;;;;;;;19.12;81.11;100404.63;7393933;19;20035;-58
2023/07/24 00:56:07;;;;;;;5.50;3.15;;;;;;;19.13;80.89;100392.88;7391118;19;20085;-58
2023/07/24 00:58:37;;;;;;;7.10;3.28;;;;;;;19.06;81.31;100392.72;7394001;19;20014;-60
2023/07/24 01:01:04;;;;;;;5.15;3.30;;;;;;;19.05;81.14;100392.91;7395962;19;20025;-58
2023/07/24 01:03:34;;;;;;;5.22;3.25;;;;;;;19.08;81.28;100392.53;7393639;19;20007;-58
2023/07/24 01:06:02;;;;;;;6.13;3.75;;;;;;;19.05;81.04;100396.44;7394961;19;20011;-58
2023/07/24 01:08:29;;;;;;;6.35;3.20;;;;;;;19.08;81.16;100395.22;7395557;19;20028;-58
2023/07/24 01:11:14;;;;;;;5.53;3.35;;;;;;;19.05;81.29;100392.91;7394960;19;20021;-58
2023/07/24 01:13:49;;;;;;;7.18;3.22;;;;;;;19.06;81.04;100392.72;7393924;19;20018;-58
2023/07/24 01:16:19;;;;;;;6.50;3.53;;;;;;;19.10;80.91;100390.53;7392108;19;20010;-57
2023/07/24 01:18:51;;;;;;;6.72;3.35;;;;;;;19.08;80.69;100388.03;7395484;19;20010;-57
2023/07/24 01:21:26;;;;;;;6.38;3.50;;;;;;;19.05;80.83;100392.91;7394942;19;20029;-61
2023/07/24 01:24:01;;;;;;;8.02;3.58;;;;;;;19.12;80.54;100393.88;7390834;19;20025;-61
2023/07/24 01:26:29;;;;;;;6.57;3.08;;;;;;;19.07;80.65;100396.25;7388630;19;20010;-61
2023/07/24 01:28:57;;;;;;;6.88;3.60;;;;;;;19.06;80.43;100395.41;7389892;19;20039;-62
2023/07/24 01:31:24;;;;;;;6.82;3.60;;;;;;;19.10;80.16;100393.22;7392098;19;20095;-63
2023/07/24 01:33:51;;;;;;;6.22;3.50;;;;;;;19.12;80.04;100393.88;7395036;19;20044;-61
2023/07/24 01:36:19;;;;;;;7.78;3.53;;;;;;;19.10;79.91;100393.22;7389602;19;20013;-61
2023/07/24 01:38:48;;;;;;;6.80;3.67;;;;;;;19.09;80.16;100383.50;7390572;19;20361;-61
2023/07/24 01:41:15;;;;;;;6.70;3.80;;;;;;;19.03;80.33;100398.44;7391978;19;20027;-61
2023/07/24 01:43:43;;;;;;;5.28;3.33;;;;;;;19.01;80.14;100397.81;7389934;19;20021;-59
2023/07/24 01:46:10;;;;;;;7.47;3.80;;;;;;;18.99;80.29;100392.59;7391054;19;20022;-59
2023/07/24 01:48:37;;;;;;;6.10;3.40;;;;;;;18.98;80.17;100392.78;7390805;19;20083;-59
2023/07/24 01:51:05;;;;;;;6.85;3.53;;;;;;;19.01;80.06;100379.00;7391717;19;20082;-60
2023/07/24 01:53:32;;;;;;;6.60;3.70;;;;;;;18.99;80.14;100383.72;7389702;19;20025;-60
2023/07/24 01:55:59;;;;;;;7.28;3.25;;;;;;;18.97;80.24;100383.91;7390280;19;20018;-60
2023/07/24 01:58:27;;;;;;;6.45;3.47;;;;;;;18.94;80.40;100386.94;7391317;19;20491;-63
2023/07/24 02:00:57;;;;;;;7.03;4.00;;;;;;;19.01;80.28;100388.91;7392093;19;20027;-63
2023/07/24 02:03:24;;;;;;;6.45;4.13;;;;;;;19.01;79.81;100387.06;7390253;19;20505;-61
2023/07/24 02:05:52;;;;;;;8.05;3.90;;;;;;;19.05;79.57;100392.91;7391449;19;20040;-61
2023/07/24 02:08:19;;;;;;;9.43;3.80;;;;;;;19.06;79.58;100383.84;7391754;19;20014;-61
2023/07/24 02:10:50;;;;;;;7.07;3.80;;;;;;;19.09;79.10;100378.13;7390778;19;20021;-60
2023/07/24 02:13:18;;;;;;;6.53;4.05;;;;;;;19.03;79.78;100376.97;7388542;19;20006;-61
2023/07/24 02:15:45;;;;;;;7.47;4.22;;;;;;;19.07;79.23;100380.97;7389653;19;20349;-61
2023/07/24 02:18:13;;;;;;;8.38;4.55;;;;;;;19.11;79.39;100384.97;7391814;19;20024;-61
2023/07/24 02:20:40;;;;;;;8.98;4.38;;;;;;;19.11;79.29;100373.41;7391239;19;20047;-61
2023/07/24 02:23:08;;;;;;;9.23;4.20;;;;;;;19.15;79.28;100374.72;7389384;19;20022;-61
2023/07/24 02:25:36;;;;;;;7.47;4.70;;;;;;;19.12;79.08;100381.28;7390420;19;20023;-61
2023/07/24 02:28:03;;;;;;;9.30;3.97;;;;;;;19.06;79.49;100375.78;7389057;19;20531;-61
2023/07/24 02:30:31;;;;;;;8.27;4.28;;;;;;;19.10;78.76;100372.56;7390533;19;20019;-61
2023/07/24 02:32:58;;;;;;;8.05;4.53;;;;;;;19.07;79.34;100372.91;7390136;19;20014;-60
2023/07/24 02:35:25;;;;;;;6.55;3.90;;;;;;;19.12;78.80;100370.56;7389380;19;20023;-62
2023/07/24 02:37:53;;;;;;;9.65;4.25;;;;;;;19.14;78.61;100360.47;7390696;19;20018;-62
2023/07/24 02:40:20;;;;;;;7.80;4.35;;;;;;;19.16;78.56;100365.66;7390244;19;20048;-62
2023/07/24 02:42:47;;;;;;;8.43;4.35;;;;;;;19.16;78.81;100363.81;7389281;19;20040;-63
2023/07/24 02:45:14;;;;;;;7.55;4.05;;;;;;;19.14;78.68;100363.16;7389389;19;20023;-62
2023/07/24 02:47:42;;;;;;;9.00;4.32;;;;;;;19.16;78.72;100366.50;7389799;19;20264;-62
2023/07/24 02:50:10;;;;;;;6.65;4.18;;;;;;;19.15;78.61;100370.19;7390372;19;20015;-62
2023/07/24 02:52:37;;;;;;;9.30;4.45;;;;;;;19.13;78.85;100358.81;7388688;19;20029;-62
2023/07/24 02:55:04;;;;;;;7.68;4.10;;;;;;;19.11;78.82;100363.50;7389793;19;20039;-62
2023/07/24 02:57:32;;;;;;;8.70;4.72;;;;;;;19.05;79.05;100364.22;7396882;19;20019;-62
2023/07/24 02:59:59;;;;;;;10.40;4.95;;;;;;;19.01;78.83;100368.28;7397840;19;20035;-62
2023/07/24 03:02:26;;;;;;;9.00;5.00;;;;;;;18.96;79.09;100355.41;7396208;19;20406;-62
2023/07/24 03:04:54;;;;;;;8.10;4.80;;;;;;;18.93;78.88;100371.84;7396436;19;20091;-62
2023/07/24 03:07:21;;;;;;;10.65;4.90;;;;;;;18.92;78.79;100367.47;7397124;19;20504;-62
2023/07/24 03:09:50;;;;;;;8.02;4.38;;;;;;;18.88;78.90;100362.66;7396693;19;20044;-62
2023/07/24 03:12:18;;;;;;;7.80;4.60;;;;;;;18.87;79.26;100363.66;7396022;19;20014;-62
2023/07/24 03:14:45;;;;;;;9.20;5.10;;;;;;;18.86;78.84;100367.38;7395404;19;20021;-62
2023/07/24 03:17:12;;;;;;;9.18;4.75;;;;;;;18.87;78.89;100369.03;7395230;19;20349;-62
2023/07/24 03:19:40;;;;;;;8.35;4.82;;;;;;;18.84;78.97;100361.31;7397314;19;20428;-62
2023/07/24 03:22:08;;;;;;;7.80;5.07;;;;;;;18.81;79.24;100362.53;7395672;19;20516;-62
2023/07/24 03:24:35;;;;;;;8.52;4.63;;;;;;;18.75;79.37;100365.91;7395365;19;20014;-62
2023/07/24 03:27:03;;;;;;;9.95;4.82;;;;;;;18.73;79.18;100362.56;7397142;19;20022;-63
2023/07/24 03:29:30;;;;;;;7.45;4.63;;;;;;;18.75;78.92;100347.13;7396413;19;20022;-63
2023/07/24 03:31:58;;;;;;;9.52;4.80;;;;;;;18.73;79.28;100355.38;7395544;19;20019;-63
2023/07/24 03:34:25;;;;;;;9.25;4.90;;;;;;;18.69;79.07;100345.94;7399498;19;20492;-61
2023/07/24 03:36:52;;;;;;;6.63;4.22;;;;;;;18.70;79.04;100344.13;7392904;19;20031;-61
2023/07/24 03:39:20;;;;;;;9.90;4.82;;;;;;;18.71;79.10;100348.50;7396767;19;20035;-62
2023/07/24 03:41:47;;;;;;;8.00;4.68;;;;;;;18.72;78.90;100344.78;7394744;19;20468;-62
2023/07/24 03:44:14;;;;;;;8.05;4.28;;;;;;;18.70;78.87;100342.31;7394544;19;20025;-60
2023/07/24 03:46:42;;;;;;;6.75;4.30;;;;;;;18.70;79.09;100339.63;7395410;19;20021;-60
2023/07/24 03:49:09;;;;;;;9.20;4.32;;;;;;;18.68;78.97;100343.44;7396072;19;20019;-63
2023/07/24 03:51:36;;;;;;;7.63;4.32;;;;;;;18.66;78.95;100343.63;7396047;19;20048;-62
2023/07/24 03:54:03;;;;;;;7.22;4.30;;;;;;;18.67;79.09;100347.97;7394678;19;20019;-61
2023/07/24 03:56:31;;;;;;;7.90;4.43;;;;;;;18.67;79.30;100356.03;7392823;19;20094;-61
2023/07/24 03:58:58;;;;;;;7.97;4.45;;;;;;;18.74;79.35;100358.88;7394453;19;20027;-62
2023/07/24 04:01:26;;;;;;;8.05;4.43;;;;;;;18.80;79.20;100360.84;7395344;19;20051;-61
2023/07/24 04:03:53;;;;;;;7.45;4.28;;;;;;;18.81;79.21;100348.25;7395527;19;20022;-62
2023/07/24 04:06:21;;;;;;;7.40;4.25;;;;;;;18.78;78.94;100346.78;7392316;19;20022;-63
2023/07/24 04:08:48;;;;;;;6.82;4.20;;;;;;;18.82;79.17;100364.19;7394561;19;20019;-62
2023/07/24 04:11:15;;;;;;;8.15;4.40;;;;;;;18.83;79.02;100362.34;7395273;19;20022;-61
2023/07/24 04:13:43;;;;;;;7.53;4.13;;;;;;;18.83;79.45;100362.34;7395309;19;20045;-61
2023/07/24 04:16:10;;;;;;;7.97;4.13;;;;;;;18.82;79.33;100348.09;7393643;19;20029;-61
2023/07/24 04:18:37;;;;;;;6.82;3.70;;;;;;;18.86;79.16;100356.63;7395287;19;20014;-62
2023/07/24 04:21:05;;;;;;;7.32;3.90;;;;;;;18.88;79.58;100354.59;7395372;19;20503;-62
2023/07/24 04:23:32;;;;;;;7.50;4.10;;;;;;;18.88;79.40;100354.59;7392361;19;20028;-63
2023/07/24 04:25:59;;;;;;;6.43;3.60;;;;;;;18.87;79.78;100342.19;7394403;19;20052;-63
2023/07/24 04:28:27;;;;;;;6.93;3.90;;;;;;;18.96;79.50;100349.16;7394062;19;20090;-62
2023/07/24 04:30:54;;;;;;;6.15;3.20;;;;;;;19.01;79.34;100337.94;7394277;19;20014;-61
2023/07/24 04:33:22;;;;;;;6.75;3.67;;;;;;;19.04;79.38;100341.09;7393719;19;20038;-62
2023/07/24 04:35:49;;;;;;;7.00;3.65;;;;;;;19.08;79.29;100337.03;7392747;19;20022;-62
2023/07/24 04:38:16;;;;;;;6.10;3.65;;;;;;;19.04;79.38;100325.00;7394562;19;20505;-61
2023/07/24 04:40:45;;;;;;;6.22;3.25;;;;;;;19.06;79.78;100320.25;7394184;19;20022;-61
2023/07/24 04:43:12;;;;;;;9.10;3.30;;;;;;;19.12;79.72;100319.56;7392527;19;20011;-61
2023/07/24 04:45:40;;;;;;;6.55;3.58;;;;;;;19.10;79.62;100313.50;7392824;19;20019;-61
2023/07/24 04:48:07;;;;;;;7.32;3.30;;;;;;;19.14;79.42;100312.13;7394198;19;20087;-61
2023/07/24 04:50:34;;;;;;;6.68;3.00;;;;;;;19.17;79.77;100308.28;7394231;19;20039;-63
2023/07/24 04:53:01;;;;;;;7.55;3.28;;;;;;;19.20;79.42;100306.06;7391629;19;20041;-63
2023/07/24 04:55:29;;;;;;;4.57;3.05;;;;;;;19.18;79.72;100294.66;7393023;19;20014;-62
2023/07/24 04:57:56;;;;;;;4.65;3.10;;;;;;;19.18;79.73;100297.34;7393466;19;20019;-63
2023/07/24 05:00:24;;;;;;;8.38;3.08;;;;;;;19.17;79.96;100294.84;7393267;19;20492;-63
2023/07/24 05:02:51;;;;;;;5.63;3.20;;;;;;;19.10;80.00;100294.72;7392006;19;20018;-62
2023/07/24 05:05:19;;;;;;;4.55;2.75;;;;;;;19.13;80.31;100285.50;7392881;19;20027;-64
2023/07/24 05:07:47;;;;;;;5.97;3.05;;;;;;;19.18;79.72;100286.59;7393139;19;20093;-59
2023/07/24 05:10:14;;;;;;;5.80;2.80;;;;;;;19.17;80.02;100284.94;7391786;19;20471;-59
2023/07/24 05:12:42;;;;;;;5.72;3.08;;;;;;;19.16;80.12;100277.91;7391794;19;20022;-60
2023/07/24 05:15:09;;;;;;;5.32;2.75;;;;;;;19.21;79.48;100283.56;7393020;19;20014;-61
2023/07/24 05:17:37;;;;;;;9.27;3.15;;;;;;;19.24;79.29;100279.69;7390861;19;20058;-60
2023/07/24 05:20:05;;;;;;;12.00;3.25;;;;;;;19.27;79.80;100289.22;7391378;19;20022;-60
2023/07/24 05:22:32;;;;;;;9.43;2.88;;;;;;;19.21;79.75;100286.25;7389407;19;20022;-60
2023/07/24 05:24:59;;;;;;;5.60;2.88;;;;;;;19.16;80.09;100287.81;7392115;19;20024;-60
2023/07/24 05:27:26;;;;;;;7.20;3.08;;;;;;;19.16;80.15;100287.81;7392409;19;20023;-62
2023/07/24 05:29:54;;;;;;;7.88;3.08;;;;;;;19.19;79.98;100285.63;7392466;19;20022;-61
2023/07/24 05:32:21;;;;;;;5.85;2.90;;;;;;;19.26;80.02;100287.56;7391682;19;20043;-61
2023/07/24 05:34:48;;;;;;;5.97;3.30;;;;;;;19.26;80.29;100298.28;7395849;19;20074;-60
2023/07/24 05:37:16;;;;;;;8.10;3.10;;;;;;;19.28;79.76;100289.06;7390245;19;20018;-59
2023/07/24 05:39:43;;;;;;;6.63;3.25;;;;;;;19.29;79.90;100292.56;7392181;19;20575;-60
2023/07/24 05:42:10;;;;;;;8.43;3.05;;;;;;;19.35;79.69;100291.84;7389887;19;20011;-62
2023/07/24 05:44:38;;;;;;;5.80;2.95;;;;;;;19.31;79.75;100285.16;7391650;19;20041;-61
2023/07/24 05:47:05;;;;;;;6.47;3.00;;;;;;;19.38;79.57;100278.88;7390485;19;20014;-60
2023/07/24 05:49:32;;;;;;;6.28;2.90;;;;;;;19.35;80.09;100281.13;7391863;19;20026;-61
2023/07/24 05:52:00;;;;;;;7.32;3.15;;;;;;;19.40;79.69;100268.78;7390785;19;20018;-60
2023/07/24 05:54:27;;;;;;;9.15;3.35;;;;;;;19.41;79.84;100265.09;7391260;19;20018;-60
2023/07/24 05:56:54;;;;;;;5.18;2.90;;;;;;;19.45;79.57;100263.69;7389964;19;20022;-61
2023/07/24 05:59:22;;;;;;;5.53;3.25;;;;;;;19.44;79.39;100258.53;7392133;19;20019;-60
2023/07/24 06:01:49;;;;;;;5.43;2.97;;;;;;;19.52;79.35;100269.19;7391099;19;20025;-60
2023/07/24 06:04:16;;;;;;;6.13;2.90;;;;;;;19.47;79.49;100269.75;7391242;19;20019;-61
2023/07/24 06:06:44;;;;;;;6.43;3.13;;;;;;;19.46;79.62;100257.34;7390308;19;20512;-61
2023/07/24 06:09:11;;;;;;;6.28;2.85;;;;;;;19.46;79.75;100267.25;7391889;19;20022;-61
2023/07/24 06:11:38;;;;;;;7.47;3.20;;;;;;;19.48;79.43;100267.88;7391200;19;20044;-61
2023/07/24 06:14:06;;;;;;;5.88;3.33;;;;;;;19.44;79.89;100270.09;7391377;19;20021;-60
2023/07/24 06:16:33;;;;;;;6.70;3.50;;;;;;;19.47;79.38;100268.91;7389439;19;20511;-60
2023/07/24 06:19:00;;;;;;;8.25;3.45;;;;;;;19.48;79.29;100259.81;7391092;19;20019;-60
2023/07/24 06:21:28;;;;;;;7.05;4.28;;;;;;;19.51;78.74;100258.63;7390155;19;20026;-60
2023/07/24 06:23:56;;;;;;;6.82;4.05;;;;;;;19.51;78.73;100255.94;7390728;19;20018;-60
2023/07/24 06:26:23;;;;;;;6.60;3.80;;;;;;;19.51;78.83;100259.47;7390400;19;20507;-60
2023/07/24 06:28:50;;;;;;;7.03;4.13;;;;;;;19.50;78.98;100257.81;7390085;19;20585;-60
2023/07/24 06:31:18;;;;;;;7.05;4.10;;;;;;;19.54;78.57;100256.41;7389978;19;20075;-61
2023/07/24 06:33:45;;;;;;;7.60;4.60;;;;;;;19.53;78.65;100253.91;7391600;19;20014;-60
2023/07/24 06:36:13;;;;;;;7.03;4.45;;;;;;;19.53;78.41;100254.72;7389580;19;20022;-61
2023/07/24 06:38:42;;;;;;;7.47;4.60;;;;;;;19.53;78.03;100260.09;7390317;19;20024;-60
2023/07/24 06:41:09;;;;;;;7.38;4.13;;;;;;;19.50;78.11;100265.88;7390970;19;20034;-60
2023/07/24 06:43:36;;;;;;;7.25;4.75;;;;;;;19.46;77.55;100261.88;7390579;19;20014;-60
2023/07/24 06:46:04;;;;;;;7.45;4.32;;;;;;;19.46;77.83;100264.56;7389846;19;20019;-60
2023/07/24 06:48:32;;;;;;;10.25;4.80;;;;;;;19.49;77.79;100253.44;7390314;19;20025;-60
2023/07/24 06:50:59;;;;;;;8.05;4.95;;;;;;;19.49;77.64;100267.69;7390432;19;20052;-60
2023/07/24 06:53:26;;;;;;;7.05;4.30;;;;;;;19.49;77.42;100265.00;7388116;19;20386;-60
2023/07/24 06:55:53;;;;;;;7.00;4.50;;;;;;;19.52;77.44;100271.88;7387800;19;20070;-60
2023/07/24 06:58:21;;;;;;;7.22;4.65;;;;;;;19.46;77.86;100265.38;7389903;19;20492;-59
2023/07/24 07:00:48;;;;;;;6.97;4.40;;;;;;;19.46;77.79;100269.94;7389153;19;20018;-59
2023/07/24 07:03:15;;;;;;;6.75;4.60;;;;;;;19.45;77.50;100273.63;7386545;19;20029;-61
2023/07/24 07:05:43;;;;;;;8.02;5.20;;;;;;;19.42;77.68;100272.16;7388526;19;20555;-61
2023/07/24 07:08:10;;;;;;;11.70;4.50;;;;;;;19.47;77.83;100280.47;7388126;19;20487;-60
2023/07/24 07:10:37;;;;;;;8.27;5.10;;;;;;;19.48;77.29;100276.78;7388984;19;20022;-59
2023/07/24 07:13:04;;;;;;;7.97;4.97;;;;;;;19.53;77.37;100261.94;7388300;19;20040;-60
2023/07/24 07:15:32;;;;;;;8.55;4.95;;;;;;;19.56;77.62;100267.78;7388356;19;20014;-61
2023/07/24 07:17:59;;;;;;;7.95;5.03;;;;;;;19.53;77.54;100256.59;7388187;19;20572;-60
2023/07/24 07:20:26;;;;;;;11.23;5.70;;;;;;;19.54;77.10;100264.47;7389297;19;20512;-60
2023/07/24 07:22:54;;;;;;;10.23;5.90;;;;;;;19.54;77.04;100261.78;7387828;19;20022;-60
2023/07/24 07:25:21;;;;;;;10.00;5.72;;;;;;;19.59;77.01;100267.44;7389201;19;20019;-62
2023/07/24 07:27:48;;;;;;;7.88;5.43;;;;;;;19.64;76.36;100266.91;7388723;19;20018;-60
2023/07/24 07:30:16;;;;;;;9.43;5.60;;;;;;;19.67;76.68;100269.22;7389538;19;20036;-62
2023/07/24 07:32:43;;;;;;;8.10;5.50;;;;;;;19.75;76.52;100269.13;7388173;19;20491;-62
2023/07/24 07:35:11;;;;;;;7.82;5.25;;;;;;;19.72;76.32;100262.28;7388595;19;20015;-60
2023/07/24 07:37:38;;;;;;;8.43;5.70;;;;;;;19.72;76.14;100267.66;7387411;19;20047;-60
2023/07/24 07:40:06;;;;;;;8.30;5.72;;;;;;;19.66;76.50;100267.56;7389076;19;20014;-60
2023/07/24 07:42:33;;;;;;;8.93;5.57;;;;;;;19.69;75.92;100275.28;7390277;19;20043;-63
2023/07/24 07:45:03;;;;;;;8.45;5.70;;;;;;;19.81;75.52;100272.97;7394535;19;20038;-63
2023/07/24 07:47:31;;;;;;;8.13;5.18;;;;;;;20.01;75.25;100279.44;7395802;19;20022;-63
2023/07/24 07:49:58;;;;;;;9.32;5.88;;;;;;;20.03;75.10;100281.91;7395426;19;20022;-63
2023/07/24 07:52:25;;;;;;;9.25;5.38;;;;;;;20.15;74.92;100286.66;7394912;19;20014;-62
2023/07/24 07:54:52;;;;;;;9.18;5.90;;;;;;;20.23;74.55;100280.34;7395104;19;20022;-62
2023/07/24 07:57:20;;;;;;;8.45;5.68;;;;;;;20.23;73.83;100274.13;7392745;19;20018;-62
2023/07/24 07:59:47;;;;;;;10.00;5.65;;;;;;;20.22;73.84;100265.22;7397665;19;20011;-62
2023/07/24 08:02:15;;;;;;;8.93;5.80;;;;;;;20.28;73.38;100277.91;7393038;19;20014;-62
2023/07/24 08:04:42;;;;;;;10.88;6.03;;;;;;;20.30;73.44;100283.09;7397572;19;20010;-61
2023/07/24 08:07:10;;;;;;;8.65;5.75;;;;;;;20.45;73.26;100273.13;7395622;19;20019;-61
2023/07/24 08:09:38;;;;;;;9.10;6.13;;;;;;;20.58;72.97;100276.03;7396708;19;20025;-61
2023/07/24 08:12:05;;;;;;;8.98;6.00;;;;;;;20.62;72.42;100269.25;7394541;19;20018;-63
2023/07/24 08:14:34;;;;;;;8.57;6.18;;;;;;;20.60;72.40;100273.97;7395913;19;20017;-61
2023/07/24 08:17:02;;;;;;;7.78;5.57;;;;;;;20.51;73.01;100272.44;7394185;19;20027;-60
2023/07/24 08:19:29;;;;;;;8.52;5.75;;;;;;;20.48;73.22;100267.38;7395134;19;20043;-61
2023/07/24 08:21:57;;;;;;;8.48;5.57;;;;;;;20.44;73.45;100272.31;7393674;19;20018;-61
2023/07/24 08:24:24;;;;;;;8.77;5.63;;;;;;;20.42;73.94;100276.22;7395101;19;20034;-60
2023/07/24 08:26:51;;;;;;;10.23;6.35;;;;;;;20.44;73.23;100261.56;7392907;19;20014;-60
2023/07/24 08:29:18;;;;;;;8.95;6.30;;;;;;;20.44;73.20;100269.63;7394768;19;20027;-61
2023/07/24 08:31:46;;;;;;;9.68;6.70;;;;;;;20.38;72.93;100267.72;7394080;19;20023;-60
2023/07/24 08:34:13;;;;;;;8.38;5.80;;;;;;;20.36;73.54;100266.22;7397199;19;20086;-60
2023/07/24 08:36:40;;;;;;;9.10;5.45;;;;;;;20.45;73.22;100262.38;7393359;19;20059;-61
2023/07/24 08:39:08;;;;;;;9.65;6.28;;;;;;;20.48;73.36;100261.19;7394206;19;20516;-61
2023/07/24 08:41:37;;;;;;;9.48;6.22;;;;;;;20.50;73.33;100264.56;7394150;19;20023;-62
2023/07/24 08:44:08;;;;;;;9.65;6.93;;;;;;;20.44;73.55;100261.56;7393940;19;20018;-61
2023/07/24 08:46:38;;;;;;;8.77;6.63;;;;;;;20.57;72.57;100255.53;7393833;19;20039;-61
2023/07/24 08:49:06;;;;;;;9.52;6.72;;;;;;;20.67;72.68;100260.59;7393809;19;20019;-60
2023/07/24 08:51:33;;;;;;;8.98;6.32;;;;;;;20.78;71.87;100253.88;7393710;19;20050;-61
2023/07/24 08:54:01;;;;;;;7.97;6.15;;;;;;;20.79;72.08;100253.66;7393118;19;20039;-61
2023/07/24 08:56:28;;;;;;;8.48;6.28;;;;;;;20.82;71.96;100255.97;7392918;19;20015;-61
2023/07/24 08:58:56;;;;;;;10.25;7.22;;;;;;;20.82;72.27;100249.78;7391912;19;20089;-61
2023/07/24 09:01:24;;;;;;;11.23;7.47;;;;;;;20.83;71.85;100244.19;7392701;19;20011;-61
2023/07/24 09:03:52;;;;;;;10.02;6.75;;;;;;;20.78;72.28;100243.09;7391601;19;20361;-61
2023/07/24 09:06:19;;;;;;;10.38;6.35;;;;;;;20.83;71.93;100252.25;7390782;19;20539;-61
2023/07/24 09:08:46;;;;;;;8.10;5.40;;;;;;;20.87;71.57;100250.88;7392937;19;20496;-61
2023/07/24 09:11:14;;;;;;;9.68;5.50;;;;;;;20.97;71.75;100250.53;7390834;19;20018;-61
2023/07/24 09:13:42;;;;;;;6.85;4.82;;;;;;;21.00;71.87;100243.94;7393865;19;20018;-62
2023/07/24 09:16:22;;;;;;;7.90;5.45;;;;;;;21.24;70.63;100240.00;7396325;19;20027;-61
2023/07/24 09:18:51;;;;;;;7.05;5.05;;;;;;;21.31;70.37;100247.09;7391051;19;20021;-61
2023/07/24 09:21:36;;;;;;;7.53;4.95;;;;;;;21.35;69.46;100242.19;7393026;19;20026;-60
2023/07/24 09:24:11;;;;;;;7.22;4.93;;;;;;;21.41;68.85;100239.53;7392228;19;20026;-61
2023/07/24 09:26:53;;;;;;;7.68;5.40;;;;;;;21.52;68.56;100240.00;7391964;19;20019;-61
2023/07/24 09:29:31;;;;;;;7.78;4.88;;;;;;;21.47;68.31;100239.78;7390763;19;20014;-60
2023/07/24 09:32:01;;;;;;;6.65;4.63;;;;;;;21.28;68.87;100243.97;7392386;19;20086;-60
2023/07/24 09:34:29;;;;;;;7.85;5.38;;;;;;;21.38;68.44;100237.22;7394831;19;20109;-61
2023/07/24 09:36:56;;;;;;;10.25;4.90;;;;;;;21.32;69.10;100237.16;7392148;19;20033;-60
2023/07/24 09:39:27;;;;;;;9.48;5.85;;;;;;;21.19;69.67;100232.50;7391691;19;20554;-61
2023/07/24 09:42:04;;;;;;;9.02;5.93;;;;;;;21.26;69.77;100229.88;7391485;19;20086;-61
2023/07/24 09:44:32;;;;;;;9.55;5.75;;;;;;;21.32;69.60;100231.75;7391189;19;20543;-62
2023/07/24 09:47:01;;;;;;;9.48;5.95;;;;;;;21.26;69.88;100227.19;7390142;19;20020;-61
2023/07/24 09:49:48;;;;;;;8.95;6.03;;;;;;;21.19;70.52;100213.66;7391613;19;20499;-61
2023/07/24 09:52:18;;;;;;;8.40;5.18;;;;;;;21.22;70.90;100213.25;7391046;19;20039;-60
2023/07/24 09:54:51;;;;;;;10.65;5.65;;;;;;;21.33;70.39;100211.91;7391879;19;20010;-61
2023/07/24 09:57:19;;;;;;;8.23;5.70;;;;;;;21.25;70.41;100202.06;7390912;19;20043;-61
2023/07/24 09:59:51;;;;;;;9.30;5.43;;;;;;;21.19;70.77;100216.34;7391895;19;20018;-60
2023/07/24 10:02:18;;;;;;;7.63;5.15;;;;;;;21.13;70.58;100199.09;7389949;19;20033;-61
2023/07/24 10:04:47;;;;;;;6.57;4.65;;;;;;;21.10;71.04;100210.28;7388808;19;20078;-61
2023/07/24 10:07:15;;;;;;;5.97;4.50;;;;;;;21.00;71.19;100200.88;7390831;19;20104;-60
2023/07/24 10:09:44;;;;;;;6.68;4.18;;;;;;;21.08;70.11;100200.72;7391568;19;20018;-62
2023/07/24 10:12:11;;;;;;;6.55;4.50;;;;;;;21.12;70.33;100204.69;7388383;19;20018;-60
2023/07/24 10:14:38;;;;;;;7.03;4.28;;;;;;;21.07;70.26;100202.59;7388793;19;20086;-60
2023/07/24 10:17:06;;;;;;;6.93;4.85;;;;;;;21.01;70.37;100191.75;7391198;19;20022;-61
2023/07/24 10:19:39;;;;;;;8.10;5.25;;;;;;;20.93;69.92;100200.81;7390843;19;20022;-61
2023/07/24 10:22:08;;;;;;;5.97;4.32;;;;;;;20.90;70.09;100196.63;7390900;19;20053;-61
2023/07/24 10:24:39;;;;;;;8.82;5.18;;;;;;;21.00;69.98;100207.06;7388052;19;20007;-61
2023/07/24 10:27:09;;;;;;;6.10;4.68;;;;;;;21.07;69.37;100207.13;7391431;19;20431;-61
2023/07/24 10:29:36;;;;;;;6.90;4.78;;;;;;;21.05;69.24;100204.63;7390503;19;20010;-61
2023/07/24 10:32:25;;;;;;;8.07;5.20;;;;;;;21.14;68.41;100189.19;7390306;19;20022;-61
2023/07/24 10:34:57;;;;;;;7.30;5.03;;;;;;;21.17;67.41;100197.66;7393206;19;20015;-61
2023/07/24 10:37:34;;;;;;;7.50;5.55;;;;;;;21.18;67.42;100199.34;7390353;19;20014;-61
2023/07/24 10:40:03;;;;;;;7.90;5.32;;;;;;;21.14;67.27;100200.78;7390489;19;20019;-61
2023/07/24 10:42:33;;;;;;;8.18;5.75;;;;;;;21.10;67.75;100199.50;7389194;19;20026;-61
2023/07/24 10:45:08;;;;;;;9.63;5.90;;;;;;;21.17;67.15;100194.97;7389674;19;20086;-61
2023/07/24 10:47:35;;;;;;;8.63;5.90;;;;;;;21.11;67.83;100189.56;7389677;19;20022;-61
2023/07/24 10:50:03;;;;;;;7.53;5.50;;;;;;;21.01;67.89;100189.06;7388825;19;20024;-61
2023/07/24 10:52:32;;;;;;;8.40;5.50;;;;;;;21.15;67.86;100196.22;7388405;19;20022;-61
2023/07/24 10:55:03;;;;;;;7.75;5.78;;;;;;;21.30;66.83;100191.56;7389396;19;20010;-61
2023/07/24 10:57:31;;;;;;;7.53;5.53;;;;;;;21.41;66.49;100188.34;7388233;19;20086;-61
2023/07/24 10:59:59;;;;;;;9.00;5.65;;;;;;;21.45;66.18;100180.72;7389809;19;20464;-60
2023/07/24 11:02:28;;;;;;;8.80;5.82;;;;;;;21.48;66.47;100166.81;7388867;19;20018;-60
2023/07/24 11:04:59;;;;;;;9.77;6.13;;;;;;;21.60;66.30;100172.50;7389333;19;20375;-61
2023/07/24 11:07:32;;;;;;;10.35;6.20;;;;;;;21.64;66.39;100166.50;7390149;19;20011;-61
2023/07/24 11:09:59;;;;;;;8.97;6.40;;;;;;;21.61;66.98;100169.59;7389349;19;20025;-62
2023/07/24 11:12:30;;;;;;;9.07;5.57;;;;;;;21.63;66.69;100153.22;7388695;19;20053;-62
2023/07/24 11:14:58;;;;;;;8.32;6.18;;;;;;;21.71;66.16;100144.13;7388440;19;20114;-62
2023/07/24 11:17:37;;;;;;;8.13;5.55;;;;;;;22.13;63.94;100146.63;7395024;19;20273;-61
2023/07/24 11:20:15;;;;;;;8.25;5.93;;;;;;;22.25;63.65;100140.63;7396838;19;20641;-60
2023/07/24 11:22:44;;;;;;;7.97;5.43;;;;;;;22.12;64.06;100149.47;7394672;19;20021;-61
2023/07/24 11:25:11;;;;;;;8.00;5.18;;;;;;;22.14;63.48;100136.66;7395221;19;20035;-61
2023/07/24 11:27:43;;;;;;;8.15;5.40;;;;;;;22.21;63.31;100144.75;7396826;19;20019;-61
2023/07/24 11:30:12;;;;;;;7.45;5.22;;;;;;;22.30;62.49;100143.53;7396721;19;20081;-61
2023/07/24 11:32:40;;;;;;;9.80;5.35;;;;;;;22.38;61.05;100146.84;7394242;19;20025;-61